createdAt,value
2022-12-15T00:00:20.992Z,-5.90
2022-12-15T00:03:06.480Z,-5.80
2022-12-15T00:05:53.645Z,-6.00
2022-12-15T00:08:39.443Z,-6.00
2022-12-15T00:11:25.020Z,-6.10
2022-12-15T00:14:10.476Z,-6.20
2022-12-15T00:16:56.112Z,-6.30
2022-12-15T00:19:42.101Z,-6.00
2022-12-15T00:22:29.216Z,-6.00
2022-12-15T00:25:14.692Z,-6.00
2022-12-15T00:28:00.291Z,-6.10
2022-12-15T00:30:49.901Z,-6.00
2022-12-15T00:33:36.423Z,-6.00
2022-12-15T00:36:22.050Z,-6.10
2022-12-15T00:38:51.472Z,-6.20
2022-12-15T00:41:20.053Z,-6.20
2022-12-15T00:43:48.062Z,-6.20
2022-12-15T00:46:33.436Z,-6.20
2022-12-15T00:49:02.248Z,-6.20
2022-12-15T00:51:47.516Z,-6.40
2022-12-15T00:54:34.271Z,-6.40
2022-12-15T00:57:20.004Z,-6.30
2022-12-15T01:00:05.946Z,-6.30
2022-12-15T01:02:52.065Z,-6.40
2022-12-15T01:05:37.825Z,-6.30
2022-12-15T01:08:23.532Z,-6.30
2022-12-15T01:11:10.512Z,-6.40
2022-12-15T01:13:56.028Z,-6.50
2022-12-15T01:16:41.722Z,-6.50
2022-12-15T01:19:27.618Z,-6.40
2022-12-15T01:21:55.596Z,-6.40
2022-12-15T01:24:24.405Z,-6.30
2022-12-15T01:26:53.784Z,-6.30
2022-12-15T01:29:21.755Z,-6.20
2022-12-15T01:31:50.956Z,-6.10
2022-12-15T01:34:20.039Z,-6.20
2022-12-15T01:36:48.118Z,-6.20
2022-12-15T01:39:16.296Z,-6.20
2022-12-15T01:41:43.386Z,-6.20
2022-12-15T01:44:21.502Z,-6.10
2022-12-15T01:46:52.619Z,-6.00
2022-12-15T01:49:26.083Z,-5.90
2022-12-15T01:51:58.401Z,-5.90
2022-12-15T01:54:29.945Z,-5.90
2022-12-15T01:57:01.860Z,-5.80
2022-12-15T01:59:34.401Z,-5.70
2022-12-15T02:02:03.047Z,-5.70
2022-12-15T02:04:32.184Z,-5.70
2022-12-15T02:07:00.152Z,-5.70
2022-12-15T02:09:28.750Z,-5.70
2022-12-15T02:12:01.997Z,-5.70
2022-12-15T02:14:57.982Z,-5.70
2022-12-15T02:17:36.603Z,-5.60
2022-12-15T02:20:44.549Z,-5.60
2022-12-15T02:23:53.008Z,-5.70
2022-12-15T02:26:51.108Z,-5.60
2022-12-15T02:29:39.808Z,-5.70
2022-12-15T02:32:13.476Z,-5.60
2022-12-15T02:34:45.785Z,-5.70
2022-12-15T02:37:17.784Z,-5.90
2022-12-15T02:39:45.831Z,-6.00
2022-12-15T02:42:16.573Z,-6.10
2022-12-15T02:44:49.913Z,-6.10
2022-12-15T02:47:25.536Z,-6.30
2022-12-15T02:50:09.861Z,-6.20
2022-12-15T02:52:47.389Z,-6.20
2022-12-15T02:55:22.323Z,-6.00
2022-12-15T02:57:56.035Z,-6.00
2022-12-15T03:00:24.261Z,-5.90
2022-12-15T03:02:56.243Z,-5.90
2022-12-15T03:05:26.515Z,-5.90
2022-12-15T03:07:55.702Z,-5.90
2022-12-15T03:10:26.090Z,-6.00
2022-12-15T03:12:55.432Z,-6.10
2022-12-15T03:15:23.445Z,-6.20
2022-12-15T03:17:52.853Z,-6.30
2022-12-15T03:20:21.963Z,-6.40
2022-12-15T03:22:49.960Z,-6.20
2022-12-15T03:25:18.015Z,-6.00
2022-12-15T03:27:47.330Z,-5.80
2022-12-15T03:30:15.918Z,-5.70
2022-12-15T03:32:43.956Z,-5.70
2022-12-15T03:35:13.934Z,-5.70
2022-12-15T03:37:42.829Z,-5.80
2022-12-15T03:40:14.204Z,-5.80
2022-12-15T03:42:50.856Z,-5.90
2022-12-15T03:45:20.279Z,-5.90
2022-12-15T03:47:49.144Z,-5.90
2022-12-15T03:50:20.316Z,-5.90
2022-12-15T03:52:52.449Z,-6.00
2022-12-15T03:55:21.207Z,-6.00
2022-12-15T03:57:50.069Z,-5.80
2022-12-15T04:00:19.431Z,-5.80
2022-12-15T04:02:50.063Z,-5.80
2022-12-15T04:05:21.724Z,-5.70
2022-12-15T04:07:49.754Z,-5.70
2022-12-15T04:10:18.001Z,-5.60
2022-12-15T04:12:46.115Z,-5.70
2022-12-15T04:15:14.279Z,-5.80
2022-12-15T04:17:42.858Z,-5.80
2022-12-15T04:20:10.865Z,-5.90
2022-12-15T04:22:42.808Z,-5.90
2022-12-15T04:25:32.898Z,-5.80
2022-12-15T04:28:18.847Z,-5.90
2022-12-15T04:31:15.118Z,-5.90
2022-12-15T04:34:06.166Z,-5.90
2022-12-15T04:36:53.058Z,-6.10
2022-12-15T04:39:40.078Z,-6.10
2022-12-15T04:42:25.665Z,-5.90
2022-12-15T04:45:20.307Z,-5.80
2022-12-15T04:48:06.805Z,-5.80
2022-12-15T04:50:52.370Z,-5.90
2022-12-15T04:53:38.840Z,-5.80
2022-12-15T04:56:29.226Z,-5.80
2022-12-15T04:59:14.793Z,-5.80
2022-12-15T05:02:00.607Z,-5.90
2022-12-15T05:04:46.587Z,-5.80
2022-12-15T05:07:32.533Z,-5.80
2022-12-15T05:10:18.153Z,-5.70
2022-12-15T05:13:05.032Z,-5.80
2022-12-15T05:15:51.638Z,-5.90
2022-12-15T05:18:37.542Z,-5.90
2022-12-15T05:21:24.105Z,-5.90
2022-12-15T05:24:09.712Z,-6.00
2022-12-15T05:26:55.656Z,-5.80
2022-12-15T05:29:43.003Z,-5.80
2022-12-15T05:32:13.121Z,-5.70
2022-12-15T05:34:41.089Z,-5.80
2022-12-15T05:37:10.604Z,-5.80
2022-12-15T05:39:38.846Z,-5.80
2022-12-15T05:42:06.979Z,-5.80
2022-12-15T05:44:36.645Z,-5.80
2022-12-15T05:47:05.045Z,-5.80
2022-12-15T05:49:33.425Z,-5.70
2022-12-15T05:52:03.470Z,-5.60
2022-12-15T05:54:31.491Z,-5.60
2022-12-15T05:56:59.483Z,-5.60
2022-12-15T05:59:27.481Z,-5.70
2022-12-15T06:01:57.029Z,-5.70
2022-12-15T06:04:25.440Z,-5.70
2022-12-15T06:06:53.500Z,-5.70
2022-12-15T06:09:21.485Z,-5.70
2022-12-15T06:11:49.541Z,-5.70
2022-12-15T06:14:17.661Z,-5.70
2022-12-15T06:16:51.093Z,-5.80
2022-12-15T06:19:21.141Z,-5.80
2022-12-15T06:21:49.301Z,-5.80
2022-12-15T06:24:17.351Z,-5.80
2022-12-15T06:26:45.457Z,-5.70
2022-12-15T06:29:14.475Z,-5.70
2022-12-15T06:31:42.730Z,-5.80
2022-12-15T06:34:14.782Z,-5.80
2022-12-15T06:36:44.174Z,-5.80
2022-12-15T06:39:15.326Z,-6.00
2022-12-15T06:41:43.811Z,-6.00
2022-12-15T06:44:14.887Z,-5.90
2022-12-15T06:46:43.289Z,-5.90
2022-12-15T06:49:11.712Z,-5.90
2022-12-15T06:51:41.321Z,-6.00
2022-12-15T06:54:12.120Z,-6.00
2022-12-15T06:56:40.567Z,-6.10
2022-12-15T06:59:09.614Z,-5.90
2022-12-15T07:01:38.532Z,-5.90
2022-12-15T07:04:06.881Z,-6.00
2022-12-15T07:06:37.254Z,-6.00
2022-12-15T07:09:07.841Z,-6.10
2022-12-15T07:11:37.515Z,-5.90
2022-12-15T07:14:05.966Z,-5.90
2022-12-15T07:16:34.278Z,-5.90
2022-12-15T07:19:02.353Z,-5.80
2022-12-15T07:21:30.758Z,-5.80
2022-12-15T07:23:59.978Z,-5.80
2022-12-15T07:26:28.762Z,-5.90
2022-12-15T07:28:58.133Z,-5.90
2022-12-15T07:31:26.301Z,-5.90
2022-12-15T07:33:54.702Z,-5.80
2022-12-15T07:36:23.102Z,-5.70
2022-12-15T07:38:51.763Z,-5.70
2022-12-15T07:41:21.276Z,-5.70
2022-12-15T07:43:49.885Z,-5.70
2022-12-15T07:46:19.796Z,-5.70
2022-12-15T07:48:50.186Z,-5.70
2022-12-15T07:51:21.103Z,-5.50
2022-12-15T07:53:50.791Z,-5.40
2022-12-15T07:56:19.886Z,-5.00
2022-12-15T07:58:47.880Z,-4.60
2022-12-15T08:01:16.743Z,-4.10
2022-12-15T08:03:46.340Z,-4.00
2022-12-15T08:06:15.976Z,-3.30
2022-12-15T08:08:50.537Z,-3.20
2022-12-15T08:11:20.246Z,-3.30
2022-12-15T08:14:05.743Z,-3.10
2022-12-15T08:16:36.701Z,-2.60
2022-12-15T08:19:07.592Z,-2.00
2022-12-15T08:21:35.715Z,-1.50
2022-12-15T08:24:04.272Z,-1.40
2022-12-15T08:26:32.382Z,-1.50
2022-12-15T08:29:48.856Z,-1.60
2022-12-15T08:31:55.615Z,-1.90
2022-12-15T08:34:25.144Z,-3.10
2022-12-15T08:36:53.224Z,-3.70
2022-12-15T08:39:21.634Z,-3.70
2022-12-15T08:41:50.335Z,-3.60
2022-12-15T08:44:18.323Z,-3.20
2022-12-15T08:46:46.322Z,-2.90
2022-12-15T08:49:19.750Z,-1.50
2022-12-15T08:51:52.212Z,-0.90
2022-12-15T08:54:21.443Z,-0.50
2022-12-15T08:56:50.219Z,-0.80
2022-12-15T08:59:20.179Z,-0.50
2022-12-15T09:01:48.454Z,0.10
2022-12-15T09:04:16.860Z,-0.30
2022-12-15T09:06:50.774Z,-0.40
2022-12-15T09:09:20.756Z,-1.20
2022-12-15T09:11:49.787Z,-1.70
2022-12-15T09:14:19.718Z,-1.60
2022-12-15T09:16:51.029Z,-1.50
2022-12-15T09:19:19.209Z,-1.90
2022-12-15T09:21:49.472Z,-1.20
2022-12-15T09:24:25.880Z,-1.00
2022-12-15T09:26:58.473Z,-0.80
2022-12-15T09:29:26.680Z,-0.40
2022-12-15T09:31:54.753Z,0.20
2022-12-15T09:34:22.824Z,0.50
2022-12-15T09:36:50.908Z,0.80
2022-12-15T09:39:19.437Z,0.70
2022-12-15T09:41:54.324Z,0.20
2022-12-15T09:44:25.940Z,-0.10
2022-12-15T09:47:06.795Z,0.10
2022-12-15T09:49:58.767Z,0.80
2022-12-15T09:52:29.000Z,1.40
2022-12-15T09:54:57.999Z,1.30
2022-12-15T09:57:37.467Z,1.40
2022-12-15T10:00:17.538Z,2.00
2022-12-15T10:03:06.818Z,2.80
2022-12-15T10:06:07.184Z,3.00
2022-12-15T10:08:40.927Z,2.70
2022-12-15T10:11:20.831Z,2.50
2022-12-15T10:13:53.600Z,3.30
2022-12-15T10:16:28.950Z,3.80
2022-12-15T10:19:07.071Z,4.10
2022-12-15T10:21:36.408Z,4.10
2022-12-15T10:24:31.667Z,3.50
2022-12-15T10:27:19.716Z,3.30
2022-12-15T10:29:54.939Z,3.80
2022-12-15T10:32:39.340Z,4.00
2022-12-15T10:35:16.996Z,3.70
2022-12-15T10:37:45.038Z,2.70
2022-12-15T10:40:18.229Z,2.90
2022-12-15T10:42:48.503Z,2.80
2022-12-15T10:45:35.532Z,2.60
2022-12-15T10:48:06.853Z,2.60
2022-12-15T10:50:35.976Z,2.70
2022-12-15T10:53:09.639Z,2.60
2022-12-15T10:55:40.216Z,2.10
2022-12-15T10:58:18.393Z,2.30
2022-12-15T11:00:47.399Z,2.40
2022-12-15T11:03:25.061Z,2.30
2022-12-15T11:05:54.333Z,1.50
2022-12-15T11:08:23.725Z,1.40
2022-12-15T11:11:11.469Z,1.60
2022-12-15T11:13:41.610Z,0.90
2022-12-15T11:16:17.327Z,1.10
2022-12-15T11:18:52.068Z,0.80
2022-12-15T11:21:23.402Z,0.80
2022-12-15T11:24:00.524Z,0.90
2022-12-15T11:26:44.132Z,1.30
2022-12-15T11:29:24.760Z,1.90
2022-12-15T11:31:54.528Z,1.90
2022-12-15T11:34:27.339Z,1.70
2022-12-15T11:37:10.606Z,1.60
2022-12-15T11:39:52.695Z,1.50
2022-12-15T11:42:40.282Z,1.80
2022-12-15T11:45:19.091Z,1.70
2022-12-15T11:47:53.295Z,2.00
2022-12-15T11:50:29.235Z,1.90
2022-12-15T11:53:27.208Z,2.20
2022-12-15T11:56:04.393Z,2.10
2022-12-15T11:58:51.478Z,2.20
2022-12-15T12:01:36.765Z,1.90
2022-12-15T12:04:16.274Z,1.60
2022-12-15T12:06:55.397Z,1.60
2022-12-15T12:09:31.370Z,2.10
2022-12-15T12:12:09.207Z,2.80
2022-12-15T12:14:50.656Z,1.80
2022-12-15T12:17:43.266Z,1.40
2022-12-15T12:20:18.641Z,0.90
2022-12-15T12:22:54.635Z,0.60
2022-12-15T12:25:25.738Z,0.60
2022-12-15T12:27:57.824Z,0.50
2022-12-15T12:30:33.274Z,0.50
2022-12-15T12:33:06.600Z,0.50
2022-12-15T12:35:39.749Z,0.20
2022-12-15T12:38:11.894Z,0.30
2022-12-15T12:40:54.654Z,0.50
2022-12-15T12:43:32.682Z,0.40
2022-12-15T12:46:08.023Z,0.30
2022-12-15T12:48:39.556Z,0.20
2022-12-15T12:51:22.120Z,0.30
2022-12-15T12:53:52.266Z,0.30
2022-12-15T12:56:36.786Z,0.20
2022-12-15T12:59:08.802Z,0.20
2022-12-15T13:01:38.940Z,0.00
2022-12-15T13:04:10.755Z,0.00
2022-12-15T13:06:58.719Z,0.00
2022-12-15T13:09:40.267Z,0.00
2022-12-15T13:12:53.494Z,-0.10
2022-12-15T13:15:38.955Z,-0.20
2022-12-15T13:18:14.721Z,-0.30
2022-12-15T13:20:44.519Z,-0.40
2022-12-15T13:23:43.854Z,-0.30
2022-12-15T13:26:19.263Z,-0.10
2022-12-15T13:28:52.127Z,0.20
2022-12-15T13:31:30.016Z,0.50
2022-12-15T13:34:16.898Z,0.70
2022-12-15T13:37:00.713Z,0.90
2022-12-15T13:39:55.578Z,1.10
2022-12-15T13:42:52.980Z,1.10
2022-12-15T13:45:45.190Z,0.90
2022-12-15T13:48:28.303Z,0.80
2022-12-15T13:51:15.751Z,0.80
2022-12-15T13:53:51.498Z,0.70
2022-12-15T13:56:38.943Z,0.40
2022-12-15T13:59:17.322Z,0.30
2022-12-15T14:01:51.321Z,0.00
2022-12-15T14:04:20.375Z,-0.10
2022-12-15T14:06:51.519Z,-0.20
2022-12-15T14:09:23.513Z,-0.20
2022-12-15T14:11:53.977Z,-0.50
2022-12-15T14:14:27.624Z,-0.70
2022-12-15T14:17:02.072Z,-0.80
2022-12-15T14:19:39.774Z,-0.90
2022-12-15T14:22:28.136Z,-1.00
2022-12-15T14:25:09.808Z,-0.90
2022-12-15T14:27:37.830Z,-1.00
2022-12-15T14:30:22.245Z,-1.10
2022-12-15T14:32:53.646Z,-1.20
2022-12-15T14:35:28.510Z,-1.10
2022-12-15T14:37:59.232Z,-1.30
2022-12-15T14:40:29.553Z,-1.30
2022-12-15T14:42:57.832Z,-1.40
2022-12-15T14:45:31.986Z,-1.40
2022-12-15T14:48:39.564Z,-1.50
2022-12-15T14:50:51.491Z,-1.60
2022-12-15T14:53:20.970Z,-1.70
2022-12-15T14:55:49.117Z,-1.70
2022-12-15T14:58:30.560Z,-1.70
2022-12-15T15:01:01.140Z,-1.80
2022-12-15T15:03:38.131Z,-1.70
2022-12-15T15:06:17.022Z,-1.70
2022-12-15T15:08:48.994Z,-1.80
2022-12-15T15:11:26.913Z,-1.90
2022-12-15T15:13:57.246Z,-2.00
2022-12-15T15:16:27.539Z,-2.10
2022-12-15T15:18:58.243Z,-2.00
2022-12-15T15:21:28.936Z,-2.00
2022-12-15T15:24:01.798Z,-2.10
2022-12-15T15:26:31.002Z,-2.20
2022-12-15T15:31:47.710Z,-2.50
2022-12-15T15:34:16.022Z,-2.50
2022-12-15T15:36:47.319Z,-2.50
2022-12-15T15:39:17.877Z,-2.60
2022-12-15T15:41:45.873Z,-2.60
2022-12-15T15:44:16.357Z,-2.70
2022-12-15T15:46:50.189Z,-2.80
2022-12-15T15:49:21.404Z,-2.90
2022-12-15T15:51:49.748Z,-3.10
2022-12-15T15:54:22.133Z,-3.10
2022-12-15T15:56:50.212Z,-3.20
2022-12-15T15:59:20.868Z,-3.20
2022-12-15T16:01:54.467Z,-3.10
2022-12-15T16:04:23.046Z,-3.00
2022-12-15T16:06:51.802Z,-3.10
2022-12-15T16:09:19.828Z,-3.20
2022-12-15T16:11:48.082Z,-3.20
2022-12-15T16:14:18.017Z,-3.00
2022-12-15T16:16:46.585Z,-3.10
2022-12-15T16:19:16.013Z,-3.30
2022-12-15T16:21:44.559Z,-3.30
2022-12-15T16:24:16.597Z,-3.30
2022-12-15T16:26:49.202Z,-3.30
2022-12-15T16:29:19.811Z,-3.40
2022-12-15T16:31:48.382Z,-3.30
2022-12-15T16:34:19.078Z,-3.20
2022-12-15T16:36:47.171Z,-3.10
2022-12-15T16:39:29.168Z,-3.10
2022-12-15T16:41:57.532Z,-3.20
2022-12-15T16:44:26.958Z,-3.20
2022-12-15T16:46:54.988Z,-3.20
2022-12-15T16:49:24.757Z,-3.20
2022-12-15T16:51:54.382Z,-3.10
2022-12-15T16:54:25.411Z,-3.00
2022-12-15T16:56:54.028Z,-3.00
2022-12-15T16:59:33.061Z,-3.10
2022-12-15T17:02:02.081Z,-3.10
2022-12-15T17:04:31.757Z,-3.10
2022-12-15T17:06:59.764Z,-3.10
2022-12-15T17:09:27.947Z,-3.10
2022-12-15T17:11:56.303Z,-3.10
2022-12-15T17:14:24.717Z,-3.20
2022-12-15T17:16:52.766Z,-3.20
2022-12-15T17:19:21.864Z,-3.20
2022-12-15T17:21:55.001Z,-3.10
2022-12-15T17:24:23.575Z,-3.10
2022-12-15T17:26:51.975Z,-3.20
2022-12-15T17:29:22.359Z,-3.30
2022-12-15T17:31:50.590Z,-3.20
2022-12-15T17:34:30.574Z,-3.30
2022-12-15T17:37:04.266Z,-3.40
2022-12-15T17:39:35.009Z,-3.40
2022-12-15T17:42:03.402Z,-3.50
2022-12-15T17:44:35.661Z,-3.50
2022-12-15T17:47:05.533Z,-3.50
2022-12-15T17:49:36.665Z,-3.40
2022-12-15T17:52:17.641Z,-3.40
2022-12-15T17:54:45.632Z,-3.40
2022-12-15T17:57:13.816Z,-3.40
2022-12-15T17:59:41.898Z,-3.40
2022-12-15T18:02:13.577Z,-3.50
2022-12-15T18:04:42.104Z,-3.50
2022-12-15T18:07:18.061Z,-3.60
2022-12-15T18:09:46.383Z,-3.50
2022-12-15T18:12:22.684Z,-3.40
2022-12-15T18:14:51.496Z,-3.60
2022-12-15T18:17:19.882Z,-3.50
2022-12-15T18:19:48.485Z,-3.70
2022-12-15T18:22:22.578Z,-3.80
2022-12-15T18:24:52.389Z,-3.90
2022-12-15T18:27:23.618Z,-4.00
2022-12-15T18:29:52.364Z,-4.00
2022-12-15T18:32:22.276Z,-4.10
2022-12-15T18:34:50.445Z,-4.20
2022-12-15T18:37:22.930Z,-4.20
2022-12-15T18:39:51.330Z,-4.20
2022-12-15T18:42:21.548Z,-4.30
2022-12-15T18:44:51.132Z,-4.40
2022-12-15T18:47:20.754Z,-4.50
2022-12-15T18:49:48.884Z,-4.50
2022-12-15T18:52:20.568Z,-4.60
2022-12-15T18:54:49.856Z,-4.60
2022-12-15T18:57:28.538Z,-4.50
2022-12-15T19:00:00.161Z,-4.30
2022-12-15T19:02:28.780Z,-4.40
2022-12-15T19:04:57.172Z,-4.70
2022-12-15T19:07:26.817Z,-4.80
2022-12-15T19:09:55.310Z,-4.90
2022-12-15T19:12:23.514Z,-4.90
2022-12-15T19:14:55.042Z,-4.70
2022-12-15T19:17:42.660Z,-4.80
2022-12-15T19:20:34.435Z,-4.90
2022-12-15T19:23:04.217Z,-4.80
2022-12-15T19:25:33.098Z,-4.80
2022-12-15T19:28:02.202Z,-5.00
2022-12-15T19:30:33.174Z,-5.10
2022-12-15T19:33:03.816Z,-5.10
2022-12-15T19:35:32.070Z,-5.00
2022-12-15T19:38:03.037Z,-4.90
2022-12-15T19:40:34.280Z,-4.90
2022-12-15T19:43:04.342Z,-5.10
2022-12-15T19:45:33.966Z,-5.20
2022-12-15T19:48:02.045Z,-5.20
2022-12-15T19:50:36.851Z,-5.20
2022-12-15T19:53:10.267Z,-5.30
2022-12-15T19:55:40.079Z,-5.30
2022-12-15T19:58:26.975Z,-5.00
2022-12-15T20:00:57.153Z,-5.00
2022-12-15T20:03:26.197Z,-5.10
2022-12-15T20:05:57.016Z,-4.80
2022-12-15T20:08:27.245Z,-5.10
2022-12-15T20:10:57.534Z,-5.30
2022-12-15T20:13:26.385Z,-5.30
2022-12-15T20:15:54.933Z,-5.20
2022-12-15T20:18:23.062Z,-5.20
2022-12-15T20:20:51.213Z,-5.10
2022-12-15T20:23:23.589Z,-5.00
2022-12-15T20:25:51.839Z,-5.00
2022-12-15T20:28:27.861Z,-4.90
2022-12-15T20:30:57.099Z,-4.80
2022-12-15T20:33:25.762Z,-4.80
2022-12-15T20:35:54.526Z,-4.90
2022-12-15T20:38:29.553Z,-4.70
2022-12-15T20:40:58.662Z,-4.70
2022-12-15T20:43:31.976Z,-4.60
2022-12-15T20:46:04.859Z,-4.70
2022-12-15T20:48:34.618Z,-4.70
2022-12-15T20:51:07.468Z,-4.80
2022-12-15T20:53:37.616Z,-4.80
2022-12-15T20:56:06.356Z,-4.70
2022-12-15T20:58:41.497Z,-4.90
2022-12-15T21:01:21.460Z,-4.90
2022-12-15T21:03:52.147Z,-4.80
2022-12-15T21:06:20.329Z,-4.80
2022-12-15T21:08:49.395Z,-4.90
2022-12-15T21:11:19.739Z,-5.00
2022-12-15T21:13:50.401Z,-5.00
2022-12-15T21:16:20.524Z,-5.10
2022-12-15T21:19:19.851Z,-4.90
2022-12-15T21:21:42.373Z,-5.00
2022-12-15T21:24:17.115Z,-5.10
2022-12-15T21:26:45.401Z,-5.30
2022-12-15T21:29:17.030Z,-5.40
2022-12-15T21:31:45.412Z,-5.50
2022-12-15T21:34:14.231Z,-5.50
2022-12-15T21:36:44.354Z,-5.60
2022-12-15T21:39:18.828Z,-5.40
2022-12-15T21:41:47.670Z,-5.20
2022-12-15T21:44:18.226Z,-5.30
2022-12-15T21:46:46.439Z,-5.40
2022-12-15T21:49:14.979Z,-5.50
2022-12-15T21:51:45.837Z,-5.40
2022-12-15T21:54:19.589Z,-5.40
2022-12-15T21:56:48.813Z,-5.60
2022-12-15T21:59:20.385Z,-5.70
2022-12-15T22:01:48.908Z,-5.80
2022-12-15T22:04:19.496Z,-6.00
2022-12-15T22:06:50.855Z,-5.90
2022-12-15T22:09:19.560Z,-6.00
2022-12-15T22:11:49.552Z,-6.00
2022-12-15T22:14:25.163Z,-6.00
2022-12-15T22:16:53.380Z,-5.90
2022-12-15T22:19:21.760Z,-5.80
2022-12-15T22:21:50.511Z,-5.80
2022-12-15T22:24:20.913Z,-5.90
2022-12-15T22:26:49.097Z,-5.80
2022-12-15T22:29:21.489Z,-5.80
2022-12-15T22:31:50.619Z,-5.80
2022-12-15T22:34:21.906Z,-5.80
2022-12-15T22:36:50.988Z,-5.80
2022-12-15T22:39:20.636Z,-5.90
2022-12-15T22:41:50.310Z,-5.90
2022-12-15T22:44:22.635Z,-5.90
2022-12-15T22:46:51.731Z,-5.90
2022-12-15T22:49:22.374Z,-5.90
2022-12-15T22:51:51.500Z,-6.10
2022-12-15T22:54:20.866Z,-6.20
2022-12-15T22:56:51.842Z,-6.30
2022-12-15T22:59:27.511Z,-6.40
2022-12-15T23:01:56.230Z,-6.50
2022-12-15T23:04:25.939Z,-6.50
2022-12-15T23:06:54.173Z,-6.40
2022-12-15T23:09:23.004Z,-6.20
2022-12-15T23:11:52.179Z,-6.00
2022-12-15T23:14:42.222Z,-6.00
2022-12-15T23:17:09.640Z,-6.00
2022-12-15T23:19:38.041Z,-6.00
2022-12-15T23:22:06.259Z,-6.00
2022-12-15T23:24:34.672Z,-6.00
2022-12-15T23:27:02.919Z,-6.20
2022-12-15T23:29:32.259Z,-6.20
2022-12-15T23:32:00.245Z,-6.20
2022-12-15T23:34:28.201Z,-6.20
2022-12-15T23:36:56.201Z,-6.20
2022-12-15T23:39:24.300Z,-6.20
2022-12-15T23:41:52.314Z,-6.20
2022-12-15T23:44:20.281Z,-6.30
2022-12-15T23:46:49.688Z,-6.30
2022-12-15T23:49:17.718Z,-6.30
2022-12-15T23:51:45.748Z,-6.30
2022-12-15T23:54:13.877Z,-6.20
2022-12-15T23:56:41.932Z,-6.10
2022-12-15T23:59:11.119Z,-6.20
